createdAt,value
2018-08-23T00:00:34.422Z,96241.59
2018-08-23T00:03:02.911Z,96240.44
2018-08-23T00:05:31.548Z,96231.28
2018-08-23T00:08:09.000Z,96232.34
2018-08-23T00:10:37.536Z,96236.34
2018-08-23T00:13:07.186Z,96240.33
2018-08-23T00:15:35.816Z,96249.73
2018-08-23T00:18:04.176Z,96241.33
2018-08-23T00:20:32.632Z,96243.16
2018-08-23T00:23:01.123Z,96237.20
2018-08-23T00:25:29.622Z,96254.43
2018-08-23T00:27:57.946Z,96240.84
2018-08-23T00:30:29.224Z,96239.95
2018-08-23T00:32:58.756Z,96236.09
2018-08-23T00:35:27.304Z,96236.63
2018-08-23T00:37:55.728Z,96236.89
2018-08-23T00:40:24.081Z,96236.05
2018-08-23T00:42:57.927Z,96237.65
2018-08-23T00:45:26.250Z,96240.83
2018-08-23T00:47:54.573Z,96233.03
2018-08-23T00:50:31.549Z,96232.50
2018-08-23T00:52:59.978Z,96237.33
2018-08-23T00:55:29.739Z,96240.27
2018-08-23T00:57:58.207Z,96225.41
2018-08-23T01:00:27.705Z,96229.99
2018-08-23T01:03:04.455Z,96230.50
2018-08-23T01:05:39.207Z,96222.39
2018-08-23T01:08:08.744Z,96235.87
2018-08-23T01:10:38.283Z,96222.93
2018-08-23T01:13:06.599Z,96221.84
2018-08-23T01:15:34.991Z,96220.73
2018-08-23T01:18:14.071Z,96220.45
2018-08-23T01:20:43.279Z,96216.89
2018-08-23T01:23:11.607Z,96214.97
2018-08-23T01:25:47.490Z,96214.97
2018-08-23T01:28:15.870Z,96210.06
2018-08-23T01:30:45.037Z,96199.25
2018-08-23T01:33:18.063Z,96205.45
2018-08-23T01:35:48.525Z,96205.19
2018-08-23T01:38:17.351Z,96205.45
2018-08-23T01:40:45.883Z,96208.45
2018-08-23T01:43:14.755Z,96207.59
2018-08-23T01:45:43.227Z,96206.45
2018-08-23T01:48:12.111Z,96202.38
2018-08-23T01:50:40.655Z,96206.11
2018-08-23T01:53:09.068Z,96203.09
2018-08-23T01:55:37.511Z,96195.23
2018-08-23T01:58:06.179Z,96198.77
2018-08-23T02:00:35.817Z,96190.63
2018-08-23T02:03:04.951Z,96201.41
2018-08-23T02:05:33.342Z,96210.06
2018-08-23T02:08:01.773Z,96201.95
2018-08-23T02:10:30.155Z,96197.80
2018-08-23T02:12:59.043Z,96198.82
2018-08-23T02:15:35.615Z,96189.69
2018-08-23T02:18:04.791Z,96199.63
2018-08-23T02:20:33.203Z,96199.63
2018-08-23T02:23:04.893Z,96199.06
2018-08-23T02:25:33.491Z,96193.64
2018-08-23T02:28:03.099Z,96210.63
2018-08-23T02:30:46.908Z,96211.16
2018-08-23T02:33:15.859Z,96194.96
2018-08-23T02:36:23.198Z,96198.92
2018-08-23T02:39:01.559Z,96191.79
2018-08-23T02:41:30.359Z,96192.33
2018-08-23T02:43:58.827Z,96194.19
2018-08-23T02:46:27.168Z,96191.79
2018-08-23T02:48:55.655Z,96203.62
2018-08-23T02:51:38.035Z,96209.84
2018-08-23T02:54:06.579Z,96211.67
2018-08-23T02:56:35.511Z,96211.67
2018-08-23T02:59:07.199Z,96208.44
2018-08-23T03:01:39.168Z,96210.02
2018-08-23T03:04:19.806Z,96221.34
2018-08-23T03:06:58.859Z,96230.20
2018-08-23T03:09:35.813Z,96229.66
2018-08-23T03:12:09.469Z,96237.51
2018-08-23T03:14:38.296Z,96238.02
2018-08-23T03:17:24.799Z,96237.72
2018-08-23T03:20:04.783Z,96232.50
2018-08-23T03:22:34.052Z,96231.96
2018-08-23T03:25:04.850Z,96236.00
2018-08-23T03:27:33.435Z,96237.05
2018-08-23T03:30:03.001Z,96235.77
2018-08-23T03:32:31.729Z,96233.84
2018-08-23T03:35:00.687Z,96236.00
2018-08-23T03:37:29.376Z,96231.45
2018-08-23T03:39:57.793Z,96229.93
2018-08-23T03:42:26.635Z,96231.28
2018-08-23T03:44:56.007Z,96238.05
2018-08-23T03:47:24.843Z,96237.51
2018-08-23T03:49:53.184Z,96234.00
2018-08-23T03:52:23.079Z,96231.02
2018-08-23T03:54:56.683Z,96232.66
2018-08-23T03:57:29.359Z,96232.89
2018-08-23T03:59:57.715Z,96230.95
2018-08-23T04:02:26.124Z,96234.15
2018-08-23T04:05:06.507Z,96233.01
2018-08-23T04:07:35.232Z,96235.46
2018-08-23T04:10:03.636Z,96237.92
2018-08-23T04:12:32.437Z,96230.58
2018-08-23T04:15:15.842Z,96230.81
2018-08-23T04:17:44.546Z,96228.03
2018-08-23T04:20:12.944Z,96235.27
2018-08-23T04:22:41.491Z,96237.96
2018-08-23T04:25:10.103Z,96234.97
2018-08-23T04:27:38.485Z,96232.58
2018-08-23T04:30:08.042Z,96229.58
2018-08-23T04:32:41.484Z,96226.59
2018-08-23T04:35:12.450Z,96236.55
2018-08-23T04:37:40.994Z,96241.67
2018-08-23T04:40:10.405Z,96228.91
2018-08-23T04:42:38.787Z,96233.25
2018-08-23T04:45:13.843Z,96222.48
2018-08-23T04:47:59.152Z,96229.17
2018-08-23T04:50:27.880Z,96224.87
2018-08-23T04:52:56.269Z,96233.79
2018-08-23T04:55:25.395Z,96237.83
2018-08-23T04:57:53.871Z,96240.19
2018-08-23T05:00:22.223Z,96236.14
2018-08-23T05:02:51.489Z,96239.34
2018-08-23T05:05:20.096Z,96234.70
2018-08-23T05:07:48.547Z,96229.78
2018-08-23T05:10:16.880Z,96234.90
2018-08-23T05:12:45.336Z,96235.91
2018-08-23T05:15:13.652Z,96231.83
2018-08-23T05:17:42.000Z,96231.02
2018-08-23T05:20:10.660Z,96224.23
2018-08-23T05:22:39.651Z,96229.34
2018-08-23T05:25:14.770Z,96222.88
2018-08-23T05:27:59.672Z,96227.92
2018-08-23T05:30:29.088Z,96225.66
2018-08-23T05:33:05.792Z,96223.47
2018-08-23T05:35:34.340Z,96220.48
2018-08-23T05:38:02.859Z,96222.94
2018-08-23T05:40:36.542Z,96231.82
2018-08-23T05:43:04.904Z,96233.13
2018-08-23T05:45:38.872Z,96234.13
2018-08-23T05:48:19.867Z,96240.26
2018-08-23T05:50:48.307Z,96239.45
2018-08-23T05:53:17.691Z,96243.55
2018-08-23T05:55:49.419Z,96247.89
2018-08-23T05:58:26.096Z,96256.24
2018-08-23T06:00:54.974Z,96247.39
2018-08-23T06:03:23.339Z,96245.81
2018-08-23T06:05:51.926Z,96247.47
2018-08-23T06:08:20.479Z,96249.09
2018-08-23T06:10:51.359Z,96240.77
2018-08-23T06:13:19.707Z,96248.08
2018-08-23T06:15:53.339Z,96248.66
2018-08-23T06:18:22.301Z,96250.87
2018-08-23T06:20:50.671Z,96253.84
2018-08-23T06:23:19.899Z,96243.07
2018-08-23T06:25:48.932Z,96251.95
2018-08-23T06:28:25.619Z,96251.95
2018-08-23T06:30:57.092Z,96251.95
2018-08-23T06:33:38.037Z,96247.98
2018-08-23T06:36:08.801Z,96241.26
2018-08-23T06:38:38.264Z,96247.75
2018-08-23T06:41:08.160Z,96249.91
2018-08-23T06:43:36.508Z,96251.83
2018-08-23T06:46:05.410Z,96253.52
2018-08-23T06:48:33.894Z,96259.81
2018-08-23T06:51:03.344Z,96257.16
2018-08-23T06:53:40.594Z,96258.03
2018-08-23T06:56:09.128Z,96249.45
2018-08-23T06:58:37.496Z,96258.91
2018-08-23T07:01:11.172Z,96261.13
2018-08-23T07:03:46.231Z,96256.41
2018-08-23T07:06:14.720Z,96254.86
2018-08-23T07:08:43.082Z,96254.89
2018-08-23T07:11:19.843Z,96260.65
2018-08-23T07:13:54.718Z,96261.31
2018-08-23T07:16:23.644Z,96264.34
2018-08-23T07:18:52.026Z,96260.66
2018-08-23T07:21:20.389Z,96255.84
2018-08-23T07:23:48.772Z,96257.22
2018-08-23T07:26:17.179Z,96261.59
2018-08-23T07:28:45.488Z,96259.50
2018-08-23T07:31:14.020Z,96256.36
2018-08-23T07:33:44.032Z,96260.19
2018-08-23T07:36:23.472Z,96256.53
2018-08-23T07:38:52.356Z,96251.49
2018-08-23T07:41:20.693Z,96253.43
2018-08-23T07:43:49.208Z,96251.36
2018-08-23T07:46:17.586Z,96250.31
2018-08-23T07:48:45.937Z,96255.70
2018-08-23T07:51:19.632Z,96248.77
2018-08-23T07:53:47.932Z,96249.03
2018-08-23T07:56:21.577Z,96244.51
2018-08-23T07:58:51.948Z,96245.09
2018-08-23T08:01:24.630Z,96247.03
2018-08-23T08:03:52.960Z,96240.95
2018-08-23T08:06:25.827Z,96244.08
2018-08-23T08:08:55.784Z,96247.93
2018-08-23T08:11:24.230Z,96246.41
2018-08-23T08:13:58.125Z,96241.05
2018-08-23T08:16:30.604Z,96240.31
2018-08-23T08:18:59.077Z,96240.89
2018-08-23T08:21:27.497Z,96236.98
2018-08-23T08:23:58.758Z,96244.09
2018-08-23T08:26:28.571Z,96236.37
2018-08-23T08:28:56.908Z,96234.55
2018-08-23T08:31:25.227Z,96235.99
2018-08-23T08:33:56.611Z,96241.47
2018-08-23T08:36:26.118Z,96227.75
2018-08-23T08:38:54.601Z,96224.86
2018-08-23T08:41:23.081Z,96228.98
2018-08-23T08:43:52.249Z,96223.62
2018-08-23T08:46:20.601Z,96223.94
2018-08-23T08:48:49.449Z,96216.42
2018-08-23T08:51:23.462Z,96216.73
2018-08-23T08:53:52.715Z,96218.47
2018-08-23T08:56:34.151Z,96219.58
2018-08-23T08:59:02.835Z,96215.83
2018-08-23T09:01:31.228Z,96215.87
2018-08-23T09:06:45.879Z,96210.53
2018-08-23T09:09:45.206Z,96211.64
2018-08-23T09:12:14.167Z,96216.03
2018-08-23T09:14:43.315Z,96217.96
2018-08-23T09:17:28.347Z,96210.67
2018-08-23T09:20:03.247Z,96203.71
2018-08-23T09:22:52.599Z,96204.28
2018-08-23T09:25:24.009Z,96202.39
2018-08-23T09:27:53.043Z,96198.09
2018-08-23T09:30:30.445Z,96196.21
2018-08-23T09:33:02.988Z,96197.03
2018-08-23T09:35:32.430Z,96200.56
2018-08-23T09:38:02.757Z,96188.64
2018-08-23T09:40:31.184Z,96190.00
2018-08-23T09:43:03.197Z,96193.57
2018-08-23T09:45:33.004Z,96196.56
2018-08-23T09:48:01.345Z,96190.03
2018-08-23T09:50:29.968Z,96190.02
2018-08-23T09:52:58.346Z,96186.48
2018-08-23T09:55:29.584Z,96182.94
2018-08-23T09:57:58.384Z,96178.88
2018-08-23T10:00:32.233Z,96173.66
2018-08-23T10:03:06.115Z,96172.00
2018-08-23T10:06:42.739Z,96173.55
2018-08-23T10:09:24.944Z,96166.69
2018-08-23T10:11:58.449Z,96165.27
2018-08-23T10:15:31.290Z,96157.55
2018-08-23T10:18:04.787Z,96145.72
2018-08-23T10:20:45.402Z,96143.44
2018-08-23T10:23:17.109Z,96147.62
2018-08-23T10:25:49.652Z,96138.48
2018-08-23T10:28:20.302Z,96146.45
2018-08-23T10:30:49.182Z,96142.75
2018-08-23T10:33:17.898Z,96138.78
2018-08-23T10:35:50.432Z,96132.34
2018-08-23T10:38:23.360Z,96125.86
2018-08-23T10:40:53.298Z,96127.56
2018-08-23T10:43:27.105Z,96118.70
2018-08-23T10:45:59.653Z,96119.91
2018-08-23T10:48:28.234Z,96119.67
2018-08-23T10:50:56.633Z,96116.17
2018-08-23T10:53:25.001Z,96113.80
2018-08-23T10:55:53.398Z,96114.92
2018-08-23T10:58:21.784Z,96106.77
2018-08-23T11:00:50.167Z,96113.66
2018-08-23T11:03:18.707Z,96105.72
2018-08-23T11:05:47.047Z,96090.91
2018-08-23T11:08:20.993Z,96100.11
2018-08-23T11:10:54.694Z,96096.63
2018-08-23T11:13:28.435Z,96088.44
2018-08-23T11:16:02.137Z,96087.67
2018-08-23T11:18:35.970Z,96086.67
2018-08-23T11:21:04.394Z,96079.41
2018-08-23T11:23:32.773Z,96077.11
2018-08-23T11:26:01.441Z,96070.17
2018-08-23T11:28:29.952Z,96074.30
2018-08-23T11:31:01.062Z,96073.66
2018-08-23T11:33:29.510Z,96064.76
2018-08-23T11:35:57.851Z,96058.18
2018-08-23T11:38:26.194Z,96060.77
2018-08-23T11:40:54.911Z,96064.62
2018-08-23T11:43:23.283Z,96063.23
2018-08-23T11:46:01.736Z,96058.33
2018-08-23T11:48:30.495Z,96054.32
2018-08-23T11:50:58.835Z,96050.09
2018-08-23T11:53:27.370Z,96044.02
2018-08-23T11:55:55.572Z,96044.03
2018-08-23T11:58:24.040Z,96043.01
2018-08-23T12:00:52.488Z,96043.84
2018-08-23T12:03:20.880Z,96034.52
2018-08-23T12:05:49.219Z,96024.94
2018-08-23T12:08:17.671Z,96024.26
2018-08-23T12:10:45.999Z,96020.68
2018-08-23T12:13:14.359Z,96014.63
2018-08-23T12:15:42.900Z,96010.42
2018-08-23T12:18:11.300Z,96006.46
2018-08-23T12:20:39.816Z,96004.28
2018-08-23T12:23:08.388Z,96001.86
2018-08-23T12:25:36.793Z,95998.38
2018-08-23T12:28:10.670Z,96000.55
2018-08-23T12:30:38.988Z,95991.72
2018-08-23T12:33:07.075Z,95991.56
2018-08-23T12:35:35.632Z,95983.50
2018-08-23T12:38:16.215Z,95987.45
2018-08-23T12:40:50.191Z,95979.44
2018-08-23T12:43:21.764Z,95976.06
2018-08-23T12:45:50.240Z,95972.42
2018-08-23T12:48:18.627Z,95964.97
2018-08-23T12:50:46.948Z,95966.19
2018-08-23T12:53:15.360Z,95967.22
2018-08-23T12:55:43.688Z,95958.64
2018-08-23T12:58:13.069Z,95954.75
2018-08-23T13:00:42.680Z,95954.03
2018-08-23T13:03:11.285Z,95951.61
2018-08-23T13:05:39.971Z,95945.20
2018-08-23T13:08:08.354Z,95943.42
2018-08-23T13:10:37.371Z,95940.20
2018-08-23T13:13:06.203Z,95938.55
2018-08-23T13:15:34.656Z,95942.59
2018-08-23T13:18:03.640Z,95934.12
2018-08-23T13:20:32.000Z,95937.16
2018-08-23T13:23:00.424Z,95926.65
2018-08-23T13:25:28.987Z,95927.81
2018-08-23T13:27:57.392Z,95919.34
2018-08-23T13:30:25.776Z,95913.05
2018-08-23T13:32:54.180Z,95913.84
2018-08-23T13:35:22.821Z,95916.39
2018-08-23T13:37:51.213Z,95910.25
2018-08-23T13:40:20.377Z,95906.80
2018-08-23T13:42:49.432Z,95900.64
2018-08-23T13:45:17.880Z,95899.56
2018-08-23T13:47:46.296Z,95891.98
2018-08-23T13:50:14.720Z,95893.73
2018-08-23T13:52:43.252Z,95894.28
2018-08-23T13:55:11.643Z,95906.85
2018-08-23T13:57:40.022Z,95900.89
2018-08-23T14:00:12.151Z,95921.10
2018-08-23T14:02:40.619Z,95921.39
2018-08-23T14:05:08.985Z,95932.17
2018-08-23T14:07:37.926Z,95919.09
2018-08-23T14:10:06.452Z,95909.69
2018-08-23T14:12:34.838Z,95918.88
2018-08-23T14:15:03.203Z,95928.06
2018-08-23T14:17:31.675Z,95930.41
2018-08-23T14:20:00.029Z,95935.62
2018-08-23T14:22:28.543Z,95930.96
2018-08-23T14:24:57.133Z,95923.52
2018-08-23T14:27:25.611Z,95922.71
2018-08-23T14:29:54.072Z,95924.20
2018-08-23T14:32:22.545Z,95920.20
2018-08-23T14:34:50.881Z,95928.83
2018-08-23T14:37:19.345Z,95944.58
2018-08-23T14:39:47.791Z,95951.86
2018-08-23T14:42:16.193Z,95963.22
2018-08-23T14:44:44.777Z,95986.11
2018-08-23T14:47:18.532Z,95978.74
2018-08-23T14:49:46.942Z,95992.64
2018-08-23T14:52:15.425Z,96004.52
2018-08-23T14:54:44.437Z,96024.66
2018-08-23T14:57:18.107Z,96039.30
2018-08-23T14:59:46.631Z,96056.40
2018-08-23T15:02:15.043Z,96052.87
2018-08-23T15:04:48.588Z,96076.19
2018-08-23T15:07:17.554Z,96068.31
2018-08-23T15:09:45.968Z,96078.29
2018-08-23T15:12:14.445Z,96075.56
2018-08-23T15:14:42.832Z,96083.37
2018-08-23T15:17:11.465Z,96080.30
2018-08-23T15:19:40.168Z,96088.29
2018-08-23T15:22:15.333Z,96097.28
2018-08-23T15:24:44.926Z,96097.12
2018-08-23T15:27:13.412Z,96102.44
2018-08-23T15:29:41.700Z,96081.58
2018-08-23T15:32:10.141Z,96040.02
2018-08-23T15:34:38.628Z,96022.91
2018-08-23T15:37:06.951Z,96034.20
2018-08-23T15:39:35.550Z,96028.00
2018-08-23T15:42:04.019Z,96028.67
2018-08-23T15:44:32.361Z,96027.66
2018-08-23T15:47:00.952Z,96034.99
2018-08-23T15:49:29.315Z,96039.03
2018-08-23T15:51:57.729Z,96044.67
2018-08-23T15:54:26.252Z,96045.89
2018-08-23T15:56:54.685Z,96054.63
2018-08-23T15:59:23.017Z,96054.67
2018-08-23T16:01:51.631Z,96055.12
2018-08-23T16:04:20.033Z,96052.00
2018-08-23T16:06:48.361Z,96042.80
2018-08-23T16:09:16.825Z,96044.05
2018-08-23T16:11:45.278Z,96040.49
2018-08-23T16:14:13.690Z,96034.39
2018-08-23T16:16:47.556Z,96025.20
2018-08-23T16:19:21.305Z,96021.17
2018-08-23T16:21:55.829Z,96015.55
2018-08-23T16:24:24.866Z,96009.03
2018-08-23T16:26:58.813Z,96021.80
2018-08-23T16:29:27.170Z,96027.97
2018-08-23T16:31:55.809Z,96023.30
2018-08-23T16:34:24.251Z,96019.08
2018-08-23T16:36:52.713Z,96015.62
2018-08-23T16:39:21.073Z,96008.88
2018-08-23T16:41:49.515Z,96009.33
2018-08-23T16:44:17.940Z,96008.99
2018-08-23T16:46:46.470Z,96010.28
2018-08-23T16:49:14.932Z,96017.86
2018-08-23T16:51:43.271Z,96011.93
2018-08-23T16:54:11.673Z,96009.02
2018-08-23T16:56:40.229Z,96020.13
2018-08-23T16:59:08.737Z,96027.48
2018-08-23T17:01:37.085Z,96032.13
2018-08-23T17:04:05.711Z,96027.38
2018-08-23T17:06:34.187Z,96028.56
2018-08-23T17:09:02.646Z,96028.89
2018-08-23T17:11:31.116Z,96038.40
2018-08-23T17:13:59.619Z,96044.06
2018-08-23T17:16:33.453Z,96047.06
2018-08-23T17:19:01.894Z,96052.46
2018-08-23T17:21:30.533Z,96054.66
2018-08-23T17:23:58.921Z,96060.08
2018-08-23T17:26:27.309Z,96050.65
2018-08-23T17:28:55.710Z,96060.30
2018-08-23T17:31:24.220Z,96071.78
2018-08-23T17:33:52.542Z,96071.09
2018-08-23T17:36:20.971Z,96076.05
2018-08-23T17:38:49.514Z,96072.91
2018-08-23T17:41:17.911Z,96076.48
2018-08-23T17:43:46.257Z,96070.34
2018-08-23T17:46:14.985Z,96076.61
2018-08-23T17:48:43.335Z,96075.39
2018-08-23T17:51:11.829Z,96072.08
2018-08-23T17:53:40.343Z,96068.81
2018-08-23T17:56:08.773Z,96076.00
2018-08-23T17:58:37.350Z,96084.77
2018-08-23T18:01:06.261Z,96092.03
2018-08-23T18:03:34.723Z,96089.72
2018-08-23T18:06:03.104Z,96093.40
2018-08-23T18:08:31.821Z,96087.38
2018-08-23T18:11:00.340Z,96088.72
2018-08-23T18:13:28.947Z,96092.22
2018-08-23T18:16:02.921Z,96101.70
2018-08-23T18:18:32.236Z,96109.78
2018-08-23T18:21:00.738Z,96105.88
2018-08-23T18:23:29.321Z,96111.67
2018-08-23T18:25:57.849Z,96119.07
2018-08-23T18:28:26.345Z,96120.88
2018-08-23T18:30:55.085Z,96126.77
2018-08-23T18:33:23.541Z,96133.01
2018-08-23T18:35:51.900Z,96143.62
2018-08-23T18:38:21.347Z,96137.32
2018-08-23T18:40:49.780Z,96147.55
2018-08-23T18:43:18.219Z,96142.42
2018-08-23T18:45:46.879Z,96135.84
2018-08-23T18:48:15.692Z,96137.80
2018-08-23T18:50:44.080Z,96130.30
2018-08-23T18:53:12.656Z,96131.41
2018-08-23T18:55:41.315Z,96129.83
2018-08-23T18:58:09.710Z,96129.06
2018-08-23T19:00:38.430Z,96134.20
2018-08-23T19:03:06.768Z,96144.09
2018-08-23T19:05:35.143Z,96134.84
2018-08-23T19:08:03.499Z,96142.19
2018-08-23T19:10:31.936Z,96137.13
2018-08-23T19:13:00.377Z,96142.94
2018-08-23T19:15:34.108Z,96148.58
2018-08-23T19:18:02.476Z,96151.69
2018-08-23T19:20:30.851Z,96147.31
2018-08-23T19:22:59.372Z,96141.16
2018-08-23T19:25:27.818Z,96139.67
2018-08-23T19:27:56.158Z,96152.41
2018-08-23T19:30:25.001Z,96141.94
2018-08-23T19:32:53.515Z,96147.31
2018-08-23T19:35:21.870Z,96133.86
2018-08-23T19:37:50.395Z,96128.02
2018-08-23T19:40:18.720Z,96135.36
2018-08-23T19:42:47.112Z,96120.80
2018-08-23T19:45:15.768Z,96140.12
2018-08-23T19:47:48.435Z,96143.28
2018-08-23T19:50:17.448Z,96124.95
2018-08-23T19:52:46.136Z,96119.50
2018-08-23T19:55:14.614Z,96123.80
2018-08-23T19:57:43.016Z,96118.11
2018-08-23T20:00:11.849Z,96108.17
2018-08-23T20:02:40.495Z,96096.37
2018-08-23T20:05:09.172Z,96093.68
2018-08-23T20:07:37.774Z,96098.25
2018-08-23T20:10:06.272Z,96106.59
2018-08-23T20:12:34.830Z,96103.90
2018-08-23T20:15:03.196Z,96110.35
2018-08-23T20:17:31.618Z,96107.36
2018-08-23T20:20:00.136Z,96111.13
2018-08-23T20:22:28.612Z,96093.64
2018-08-23T20:24:57.046Z,96086.66
2018-08-23T20:27:25.525Z,96075.20
2018-08-23T20:29:53.919Z,96081.72
2018-08-23T20:32:22.472Z,96075.84
2018-08-23T20:34:50.770Z,96080.75
2018-08-23T20:37:19.195Z,96082.87
2018-08-23T20:39:47.752Z,96073.45
2018-08-23T20:42:16.315Z,96080.98
2018-08-23T20:44:44.789Z,96075.04
2018-08-23T20:47:13.253Z,96081.22
2018-08-23T20:49:41.897Z,96081.22
2018-08-23T20:52:10.273Z,96073.22
2018-08-23T20:54:38.767Z,96073.22
2018-08-23T20:57:07.287Z,96073.49
2018-08-23T20:59:35.705Z,96071.88
2018-08-23T21:02:04.167Z,96074.50
2018-08-23T21:04:32.763Z,96075.27
2018-08-23T21:07:01.229Z,96069.62
2018-08-23T21:09:29.679Z,96072.24
2018-08-23T21:11:58.099Z,96071.94
2018-08-23T21:14:26.419Z,96068.09
2018-08-23T21:16:54.897Z,96066.07
2018-08-23T21:19:23.555Z,96061.16
2018-08-23T21:21:52.993Z,96058.47
2018-08-23T21:24:21.335Z,96052.25
2018-08-23T21:26:49.947Z,96045.23
2018-08-23T21:29:18.704Z,96043.41
2018-08-23T21:31:47.113Z,96036.97
2018-08-23T21:34:15.683Z,96034.04
2018-08-23T21:36:44.075Z,96028.13
2018-08-23T21:39:12.460Z,96026.85
2018-08-23T21:41:41.056Z,96015.83
2018-08-23T21:44:09.447Z,96017.71
2018-08-23T21:46:37.987Z,96021.74
2018-08-23T21:49:06.865Z,96027.02
2018-08-23T21:51:35.261Z,96014.88
2018-08-23T21:54:03.633Z,96003.59
2018-08-23T21:56:32.207Z,96011.42
2018-08-23T21:59:00.657Z,96010.31
2018-08-23T22:01:29.080Z,96001.17
2018-08-23T22:03:57.609Z,95998.48
2018-08-23T22:06:26.055Z,95991.19
2018-08-23T22:08:54.477Z,95986.31
2018-08-23T22:11:22.964Z,95985.17
2018-08-23T22:13:51.462Z,95981.67
2018-08-23T22:16:19.871Z,95981.67
2018-08-23T22:18:48.427Z,95981.88
2018-08-23T22:21:16.746Z,95975.89
2018-08-23T22:23:45.110Z,95974.02
2018-08-23T22:26:13.671Z,95974.79
2018-08-23T22:28:42.087Z,95972.91
2018-08-23T22:31:10.439Z,95979.93
2018-08-23T22:33:39.003Z,95973.14
2018-08-23T22:36:07.386Z,95976.59
2018-08-23T22:38:35.699Z,95966.89
2018-08-23T22:41:04.347Z,95964.43
2018-08-23T22:43:32.741Z,95965.13
2018-08-23T22:46:01.084Z,95966.74
2018-08-23T22:48:29.787Z,95967.98
2018-08-23T22:50:58.127Z,95970.28
2018-08-23T22:53:26.552Z,95961.01
2018-08-23T22:55:55.212Z,95966.61
2018-08-23T22:58:23.516Z,95963.73
2018-08-23T23:00:52.400Z,95969.48
2018-08-23T23:03:25.992Z,95967.22
2018-08-23T23:05:54.330Z,95968.75
2018-08-23T23:08:22.656Z,95969.98
2018-08-23T23:10:51.248Z,95965.67
2018-08-23T23:13:19.639Z,95972.09
2018-08-23T23:15:47.995Z,95977.19
2018-08-23T23:18:16.572Z,95967.78
2018-08-23T23:20:44.895Z,95966.72
2018-08-23T23:23:13.372Z,95966.95
2018-08-23T23:25:41.730Z,95970.74
2018-08-23T23:28:10.087Z,95970.52
2018-08-23T23:30:38.477Z,95966.83
2018-08-23T23:33:06.954Z,95964.77
2018-08-23T23:35:35.374Z,95968.68
2018-08-23T23:38:03.719Z,95965.50
2018-08-23T23:40:32.157Z,95964.04
2018-08-23T23:43:00.478Z,95964.66
2018-08-23T23:45:28.912Z,95966.57
2018-08-23T23:47:57.420Z,95966.88
2018-08-23T23:50:26.593Z,95963.42
2018-08-23T23:52:54.910Z,95960.77
2018-08-23T23:55:23.271Z,95949.49
2018-08-23T23:57:51.770Z,95949.80
